Time,TemperatureF,DewpointF,PressureIn,WindDirection,WindDirectionDegrees,WindSpeedMPH,WindSpeedGustMPH,Humidity,HourlyPrecipIn,Conditions,Clouds,dailyrainin,SoftwareType,DateUTC
2013-03-09 00:09:00,37.6,20.7,30.12,West,270,0.0,-999.0,50,-99.99,,,0.00,Acu-Link.com,2013-03-09 05:09:00,
2013-03-09 00:24:00,37.6,20.7,30.12,ESE,112,0.0,-999.0,50,-99.99,,,0.00,Acu-Link.com,2013-03-09 05:24:00,
2013-03-09 00:40:00,36.9,22.3,30.13,WNW,292,1.1,-999.0,55,-99.99,,,0.00,Acu-Link.com,2013-03-09 05:40:00,
2013-03-09 00:55:00,36.1,22.8,30.14,SW,225,0.0,-999.0,58,-99.99,,,0.00,Acu-Link.com,2013-03-09 05:55:00,
2013-03-09 01:10:00,35.2,23.1,30.14,East,90,0.0,-999.0,61,-99.99,,,0.00,Acu-Link.com,2013-03-09 06:10:00,
2013-03-09 01:25:00,34.5,22.5,30.14,NW,315,0.0,-999.0,61,-99.99,,,0.00,Acu-Link.com,2013-03-09 06:25:00,
2013-03-09 01:40:00,33.8,22.6,30.14,West,270,0.0,-999.0,63,-99.99,,,0.00,Acu-Link.com,2013-03-09 06:40:00,
2013-03-09 01:55:00,33.3,23.2,30.14,West,270,0.0,-999.0,66,-99.99,,,0.00,Acu-Link.com,2013-03-09 06:55:00,
2013-03-09 02:10:00,32.2,23.2,30.14,WSW,247,1.7,-999.0,69,-99.99,,,0.00,Acu-Link.com,2013-03-09 07:10:00,
2013-03-09 02:25:00,31.5,23.2,30.14,East,90,0.0,-999.0,71,-99.99,,,0.00,Acu-Link.com,2013-03-09 07:25:00,
2013-03-09 02:40:00,31.3,23.0,30.14,West,270,0.0,-999.0,71,-99.99,,,0.00,Acu-Link.com,2013-03-09 07:40:00,
2013-03-09 02:56:00,30.7,23.1,30.13,East,90,0.0,-999.0,73,-99.99,,,0.00,Acu-Link.com,2013-03-09 07:56:00,
2013-03-09 03:11:00,30.6,23.3,30.13,West,270,0.0,-999.0,74,-99.99,,,0.00,Acu-Link.com,2013-03-09 08:11:00,
2013-03-09 03:26:00,30.4,23.1,30.13,NE,45,0.0,-999.0,74,-99.99,,,0.00,Acu-Link.com,2013-03-09 08:26:00,
2013-03-09 03:41:00,29.8,22.9,30.13,SSW,202,0.0,-999.0,75,-99.99,,,0.00,Acu-Link.com,2013-03-09 08:41:00,
2013-03-09 03:56:00,29.7,22.8,30.12,NE,45,0.0,-999.0,75,-99.99,,,0.00,Acu-Link.com,2013-03-09 08:56:00,
2013-03-09 04:11:00,29.5,22.3,30.13,West,270,0.0,-999.0,74,-99.99,,,0.00,Acu-Link.com,2013-03-09 09:11:00,
2013-03-09 04:26:00,28.8,21.9,30.13,WNW,292,0.0,-999.0,75,-99.99,,,0.00,Acu-Link.com,2013-03-09 09:26:00,
2013-03-09 04:42:00,28.8,22.2,30.13,ENE,67,0.0,-999.0,76,-99.99,,,0.00,Acu-Link.com,2013-03-09 09:42:00,
2013-03-09 04:57:00,28.4,22.1,30.13,West,270,1.1,-999.0,77,-99.99,,,0.00,Acu-Link.com,2013-03-09 09:57:00,
2013-03-09 05:12:00,28.6,22.3,30.14,WNW,292,0.0,-999.0,77,-99.99,,,0.00,Acu-Link.com,2013-03-09 10:12:00,
2013-03-09 05:27:00,28.4,22.1,30.14,WSW,247,0.0,-999.0,77,-99.99,,,0.00,Acu-Link.com,2013-03-09 10:27:00,
2013-03-09 05:42:00,28.2,21.9,30.15,ESE,112,0.0,-999.0,77,-99.99,,,0.00,Acu-Link.com,2013-03-09 10:42:00,
2013-03-09 05:57:00,28.0,21.7,30.15,ESE,112,0.0,-999.0,77,-99.99,,,0.00,Acu-Link.com,2013-03-09 10:57:00,
2013-03-09 06:12:00,27.9,21.6,30.16,WNW,292,0.0,-999.0,77,-99.99,,,0.00,Acu-Link.com,2013-03-09 11:12:00,
2013-03-09 06:27:00,27.9,21.6,30.15,South,180,0.0,-999.0,77,-99.99,,,0.00,Acu-Link.com,2013-03-09 11:27:00,
2013-03-09 06:42:00,27.7,21.4,30.16,ESE,112,0.0,-999.0,77,-99.99,,,0.00,Acu-Link.com,2013-03-09 11:42:00,
2013-03-09 06:58:00,27.7,21.4,30.17,West,270,0.0,-999.0,77,-99.99,,,0.00,Acu-Link.com,2013-03-09 11:58:00,
2013-03-09 07:13:00,27.9,21.9,30.17,West,270,0.0,-999.0,78,-99.99,,,0.00,Acu-Link.com,2013-03-09 12:13:00,
2013-03-09 07:28:00,28.6,22.6,30.18,West,270,0.0,-999.0,78,-99.99,,,0.00,Acu-Link.com,2013-03-09 12:28:00,
2013-03-09 07:43:00,28.9,22.9,30.19,West,270,0.0,-999.0,78,-99.99,,,0.00,Acu-Link.com,2013-03-09 12:43:00,
2013-03-09 07:58:00,30.2,24.5,30.19,NNW,337,0.0,-999.0,79,-99.99,,,0.00,Acu-Link.com,2013-03-09 12:58:00,
2013-03-09 08:13:00,31.8,26.0,30.19,NNW,337,0.0,-999.0,79,-99.99,,,0.00,Acu-Link.com,2013-03-09 13:13:00,
2013-03-09 08:28:00,33.3,25.9,30.19,West,270,0.0,-999.0,74,-99.99,,,0.00,Acu-Link.com,2013-03-09 13:28:00,
2013-03-09 08:43:00,36.1,26.6,30.20,NNW,337,0.0,-999.0,68,-99.99,,,0.00,Acu-Link.com,2013-03-09 13:43:00,
2013-03-09 08:59:00,39.9,26.3,30.20,ESE,112,1.7,-999.0,58,-99.99,,,0.00,Acu-Link.com,2013-03-09 13:59:00,
2013-03-09 09:14:00,44.1,26.2,30.20,East,90,2.2,-999.0,49,-99.99,,,0.00,Acu-Link.com,2013-03-09 14:14:00,
2013-03-09 09:29:00,46.2,25.5,30.20,ESE,112,0.0,-999.0,44,-99.99,,,0.00,Acu-Link.com,2013-03-09 14:29:00,
2013-03-09 09:44:00,49.1,25.2,30.19,SSE,157,2.2,-999.0,39,-99.99,,,0.00,Acu-Link.com,2013-03-09 14:44:00,
2013-03-09 09:59:00,51.3,26.6,30.20,SE,135,1.7,-999.0,38,-99.99,,,0.00,Acu-Link.com,2013-03-09 14:59:00,
2013-03-09 10:14:00,52.5,25.0,30.19,South,180,2.7,-999.0,34,-99.99,,,0.00,Acu-Link.com,2013-03-09 15:14:00,
2013-03-09 10:29:00,53.1,25.5,30.19,NW,315,1.1,-999.0,34,-99.99,,,0.00,Acu-Link.com,2013-03-09 15:29:00,
2013-03-09 10:45:00,54.1,26.4,30.19,ESE,112,1.7,-999.0,34,-99.99,,,0.00,Acu-Link.com,2013-03-09 15:45:00,
2013-03-09 11:00:00,57.6,23.0,30.19,SSE,157,1.7,-999.0,26,-99.99,,,0.00,Acu-Link.com,2013-03-09 16:00:00,
2013-03-09 11:15:00,57.2,23.5,30.19,NE,45,1.7,-999.0,27,-99.99,,,0.00,Acu-Link.com,2013-03-09 16:15:00,
2013-03-09 11:30:00,54.3,23.5,30.18,ENE,67,1.1,-999.0,30,-99.99,,,0.00,Acu-Link.com,2013-03-09 16:30:00,
2013-03-09 11:45:00,56.7,24.0,30.18,ESE,112,0.0,-999.0,28,-99.99,,,0.00,Acu-Link.com,2013-03-09 16:45:00,
2013-03-09 12:00:00,59.9,24.9,30.18,West,270,1.1,-999.0,26,-99.99,,,0.00,Acu-Link.com,2013-03-09 17:00:00,
2013-03-09 12:15:00,59.9,24.0,30.17,NW,315,3.2,-999.0,25,-99.99,,,0.00,Acu-Link.com,2013-03-09 17:15:00,
2013-03-09 12:30:00,59.9,21.0,30.17,South,180,2.7,-999.0,22,-99.99,,,0.00,Acu-Link.com,2013-03-09 17:30:00,
2013-03-09 12:45:00,60.6,21.6,30.16,ENE,67,2.2,-999.0,22,-99.99,,,0.00,Acu-Link.com,2013-03-09 17:45:00,
2013-03-09 13:01:00,61.9,24.7,30.15,East,90,2.2,-999.0,24,-99.99,,,0.00,Acu-Link.com,2013-03-09 18:01:00,
2013-03-09 13:16:00,63.1,20.2,30.15,NNW,337,1.1,-999.0,19,-99.99,,,0.00,Acu-Link.com,2013-03-09 18:16:00,
2013-03-09 13:31:00,63.5,24.0,30.14,ESE,112,1.1,-999.0,22,-99.99,,,0.00,Acu-Link.com,2013-03-09 18:31:00,
2013-03-09 13:46:00,63.5,24.0,30.13,ESE,112,1.1,-999.0,22,-99.99,,,0.00,Acu-Link.com,2013-03-09 18:46:00,
2013-03-09 14:01:00,64.2,22.3,30.12,WNW,292,0.0,-999.0,20,-99.99,,,0.00,Acu-Link.com,2013-03-09 19:01:00,
2013-03-09 14:16:00,64.0,13.9,30.12,WSW,247,2.7,-999.0,14,-99.99,,,0.00,Acu-Link.com,2013-03-09 19:16:00,
2013-03-09 14:31:00,64.2,15.6,30.10,WSW,247,3.2,-999.0,15,-99.99,,,0.00,Acu-Link.com,2013-03-09 19:31:00,
2013-03-09 14:46:00,63.7,16.7,30.10,SSE,157,0.0,-999.0,16,-99.99,,,0.00,Acu-Link.com,2013-03-09 19:46:00,
2013-03-09 15:01:00,66.2,13.9,30.09,SSE,157,0.0,-999.0,13,-99.99,,,0.00,Acu-Link.com,2013-03-09 20:01:00,
2013-03-09 15:16:00,64.0,18.3,30.09,SSW,202,0.0,-999.0,17,-99.99,,,0.00,Acu-Link.com,2013-03-09 20:16:00,
2013-03-09 15:32:00,65.7,16.8,30.08,SSE,157,2.2,-999.0,15,-99.99,,,0.00,Acu-Link.com,2013-03-09 20:32:00,
2013-03-09 15:47:00,68.0,9.4,30.08,ESE,112,2.2,-999.0,10,-99.99,,,0.00,Acu-Link.com,2013-03-09 20:47:00,
2013-03-09 16:02:00,67.8,11.4,30.08,South,180,3.7,-999.0,11,-99.99,,,0.00,Acu-Link.com,2013-03-09 21:02:00,
2013-03-09 16:17:00,67.6,16.7,30.07,ESE,112,0.0,-999.0,14,-99.99,,,0.00,Acu-Link.com,2013-03-09 21:17:00,
2013-03-09 16:32:00,65.8,11.8,30.08,West,270,0.0,-999.0,12,-99.99,,,0.00,Acu-Link.com,2013-03-09 21:32:00,
2013-03-09 16:47:00,64.9,16.2,30.07,ESE,112,1.1,-999.0,15,-99.99,,,0.00,Acu-Link.com,2013-03-09 21:47:00,
2013-03-09 17:02:00,64.9,14.6,30.07,West,270,0.0,-999.0,14,-99.99,,,0.00,Acu-Link.com,2013-03-09 22:02:00,
2013-03-09 17:17:00,63.7,12.0,30.07,South,180,0.0,-999.0,13,-99.99,,,0.00,Acu-Link.com,2013-03-09 22:17:00,
2013-03-09 17:32:00,62.4,17.0,30.07,WNW,292,1.1,-999.0,17,-99.99,,,0.00,Acu-Link.com,2013-03-09 22:32:00,
2013-03-09 17:48:00,60.6,16.9,30.07,SW,225,0.0,-999.0,18,-99.99,,,0.00,Acu-Link.com,2013-03-09 22:48:00,
2013-03-09 18:03:00,59.4,17.1,30.07,West,270,0.0,-999.0,19,-99.99,,,0.00,Acu-Link.com,2013-03-09 23:03:00,
2013-03-09 18:18:00,57.9,18.2,30.07,West,270,0.0,-999.0,21,-99.99,,,0.00,Acu-Link.com,2013-03-09 23:18:00,
2013-03-09 18:33:00,56.7,19.3,30.07,WNW,292,0.0,-999.0,23,-99.99,,,0.00,Acu-Link.com,2013-03-09 23:33:00,
2013-03-09 18:48:00,55.0,20.8,30.07,SE,135,0.0,-999.0,26,-99.99,,,0.00,Acu-Link.com,2013-03-09 23:48:00,
2013-03-09 19:03:00,53.4,25.0,30.07,ESE,112,0.0,-999.0,33,-99.99,,,0.00,Acu-Link.com,2013-03-10 00:03:00,
2013-03-09 19:18:00,52.2,24.0,30.08,NW,315,0.0,-999.0,33,-99.99,,,0.00,Acu-Link.com,2013-03-10 00:18:00,
2013-03-09 19:33:00,50.7,26.0,30.08,North,0,0.0,-999.0,38,-99.99,,,0.00,Acu-Link.com,2013-03-10 00:33:00,
2013-03-09 19:48:00,49.5,27.4,30.08,North,0,0.0,-999.0,42,-99.99,,,0.00,Acu-Link.com,2013-03-10 00:48:00,
2013-03-09 20:04:00,48.2,27.3,30.09,WSW,247,0.0,-999.0,44,-99.99,,,0.00,Acu-Link.com,2013-03-10 01:04:00,
2013-03-09 20:19:00,47.1,27.9,30.09,West,270,0.0,-999.0,47,-99.99,,,0.00,Acu-Link.com,2013-03-10 01:19:00,
2013-03-09 20:34:00,46.4,28.8,30.09,WSW,247,0.0,-999.0,50,-99.99,,,0.00,Acu-Link.com,2013-03-10 01:34:00,
2013-03-09 20:49:00,45.9,31.1,30.10,WSW,247,0.0,-999.0,56,-99.99,,,0.00,Acu-Link.com,2013-03-10 01:49:00,
2013-03-09 21:04:00,45.9,32.4,30.10,ESE,112,0.0,-999.0,59,-99.99,,,0.00,Acu-Link.com,2013-03-10 02:04:00,
2013-03-09 21:19:00,45.9,32.8,30.10,West,270,0.0,-999.0,60,-99.99,,,0.00,Acu-Link.com,2013-03-10 02:19:00,
2013-03-09 21:34:00,45.7,31.8,30.11,SE,135,0.0,-999.0,58,-99.99,,,0.00,Acu-Link.com,2013-03-10 02:34:00,
2013-03-09 21:49:00,45.1,31.2,30.11,WNW,292,0.0,-999.0,58,-99.99,,,0.00,Acu-Link.com,2013-03-10 02:49:00,
2013-03-09 22:04:00,44.8,30.9,30.11,WNW,292,0.0,-999.0,58,-99.99,,,0.00,Acu-Link.com,2013-03-10 03:04:00,
2013-03-09 22:20:00,44.2,30.4,30.11,WNW,292,0.0,-999.0,58,-99.99,,,0.00,Acu-Link.com,2013-03-10 03:20:00,
2013-03-09 22:35:00,43.5,31.0,30.11,WNW,292,0.0,-999.0,61,-99.99,,,0.00,Acu-Link.com,2013-03-10 03:35:00,
2013-03-09 22:50:00,43.2,31.9,30.11,NW,315,0.0,-999.0,64,-99.99,,,0.00,Acu-Link.com,2013-03-10 03:50:00,
2013-03-09 23:05:00,42.8,31.5,30.11,NW,315,0.0,-999.0,64,-99.99,,,0.00,Acu-Link.com,2013-03-10 04:05:00,
2013-03-09 23:20:00,42.3,31.8,30.10,NW,315,0.0,-999.0,66,-99.99,,,0.00,Acu-Link.com,2013-03-10 04:20:00,
2013-03-09 23:35:00,41.5,31.7,30.10,NW,315,0.0,-999.0,68,-99.99,,,0.00,Acu-Link.com,2013-03-10 04:35:00,
2013-03-09 23:50:00,41.0,31.3,30.10,NW,315,0.0,-999.0,68,-99.99,,,0.00,Acu-Link.com,2013-03-10 04:50:00,